sensor_id;sensor_type;location;lat;lon;timestamp;pressure;altitude;pressure_sealevel;temperature;humidity
78123;BME280;67376;44.802;10.332;2023-05-16T00:00:53;100088.03;;;19.86;54.94
78123;BME280;67376;44.802;10.332;2023-05-16T00:03:19;100091.56;;;19.87;54.82
78123;BME280;67376;44.802;10.332;2023-05-16T00:05:44;100089.53;;;19.77;54.45
78123;BME280;67376;44.802;10.332;2023-05-16T00:08:11;100086.81;;;19.77;54.74
78123;BME280;67376;44.802;10.332;2023-05-16T00:10:36;100084.75;;;19.84;54.57
78123;BME280;67376;44.802;10.332;2023-05-16T00:13:02;100076.97;;;19.88;54.40
78123;BME280;67376;44.802;10.332;2023-05-16T00:15:28;100070.91;;;19.81;54.75
78123;BME280;67376;44.802;10.332;2023-05-16T00:17:55;100077.72;;;19.83;54.28
78123;BME280;67376;44.802;10.332;2023-05-16T00:20:26;100075.91;;;19.89;55.12
78123;BME280;67376;44.802;10.332;2023-05-16T00:22:52;100075.41;;;19.92;54.94
78123;BME280;67376;44.802;10.332;2023-05-16T00:25:18;100068.00;;;19.87;54.86
78123;BME280;67376;44.802;10.332;2023-05-16T00:27:43;100058.81;;;19.88;54.50
78123;BME280;67376;44.802;10.332;2023-05-16T00:30:09;100060.13;;;19.86;54.67
78123;BME280;67376;44.802;10.332;2023-05-16T00:32:35;100054.56;;;19.75;54.89
78123;BME280;67376;44.802;10.332;2023-05-16T00:35:01;100052.94;;;19.74;55.34
78123;BME280;67376;44.802;10.332;2023-05-16T00:37:26;100055.78;;;19.85;55.49
78123;BME280;67376;44.802;10.332;2023-05-16T00:39:52;100050.44;;;19.90;54.81
78123;BME280;67376;44.802;10.332;2023-05-16T00:42:20;100057.44;;;19.86;54.40
78123;BME280;67376;44.802;10.332;2023-05-16T00:44:46;100049.31;;;19.69;55.25
78123;BME280;67376;44.802;10.332;2023-05-16T00:47:12;100037.88;;;19.62;55.30
78123;BME280;67376;44.802;10.332;2023-05-16T00:49:37;100044.22;;;19.72;55.06
78123;BME280;67376;44.802;10.332;2023-05-16T00:52:03;100043.56;;;19.82;54.53
78123;BME280;67376;44.802;10.332;2023-05-16T00:54:29;100041.19;;;19.86;54.94
78123;BME280;67376;44.802;10.332;2023-05-16T00:56:56;100043.38;;;19.89;54.63
78123;BME280;67376;44.802;10.332;2023-05-16T00:59:22;100038.78;;;19.89;54.72
78123;BME280;67376;44.802;10.332;2023-05-16T01:01:49;100027.88;;;19.84;54.44
78123;BME280;67376;44.802;10.332;2023-05-16T01:04:16;100022.22;;;19.86;55.10
78123;BME280;67376;44.802;10.332;2023-05-16T01:06:42;100020.66;;;19.90;54.90
78123;BME280;67376;44.802;10.332;2023-05-16T01:09:07;100017.13;;;19.89;54.42
78123;BME280;67376;44.802;10.332;2023-05-16T01:11:35;100016.53;;;19.87;54.45
78123;BME280;67376;44.802;10.332;2023-05-16T01:14:16;100014.97;;;19.91;54.22
78123;BME280;67376;44.802;10.332;2023-05-16T01:17:07;100012.75;;;19.88;55.20
78123;BME280;67376;44.802;10.332;2023-05-16T01:19:55;100011.38;;;19.86;55.48
78123;BME280;67376;44.802;10.332;2023-05-16T01:22:28;100002.09;;;19.82;54.89
78123;BME280;67376;44.802;10.332;2023-05-16T01:28:01;100002.94;;;19.82;54.61
78123;BME280;67376;44.802;10.332;2023-05-16T01:30:32;99996.69;;;19.82;54.94
78123;BME280;67376;44.802;10.332;2023-05-16T01:32:57;99999.41;;;19.82;55.41
78123;BME280;67376;44.802;10.332;2023-05-16T01:35:23;99988.00;;;19.79;55.06
78123;BME280;67376;44.802;10.332;2023-05-16T01:38:09;99992.34;;;19.81;55.20
78123;BME280;67376;44.802;10.332;2023-05-16T01:43:42;99987.44;;;19.77;55.52
78123;BME280;67376;44.802;10.332;2023-05-16T01:46:12;99986.59;;;19.77;54.72
78123;BME280;67376;44.802;10.332;2023-05-16T01:48:48;99980.69;;;19.80;55.42
78123;BME280;67376;44.802;10.332;2023-05-16T01:51:15;99980.94;;;19.78;54.59
78123;BME280;67376;44.802;10.332;2023-05-16T01:53:41;99976.66;;;19.83;55.27
78123;BME280;67376;44.802;10.332;2023-05-16T01:56:14;99977.47;;;19.83;54.58
78123;BME280;67376;44.802;10.332;2023-05-16T01:58:40;99973.56;;;19.74;55.59
78123;BME280;67376;44.802;10.332;2023-05-16T02:01:06;99974.69;;;19.78;55.69
78123;BME280;67376;44.802;10.332;2023-05-16T02:03:32;99969.94;;;19.85;55.26
78123;BME280;67376;44.802;10.332;2023-05-16T02:05:57;99969.69;;;19.87;54.70
78123;BME280;67376;44.802;10.332;2023-05-16T02:08:23;99972.13;;;19.88;54.55
78123;BME280;67376;44.802;10.332;2023-05-16T02:10:50;99973.13;;;19.82;54.59
78123;BME280;67376;44.802;10.332;2023-05-16T02:13:16;99966.00;;;19.76;54.91
78123;BME280;67376;44.802;10.332;2023-05-16T02:15:41;99963.31;;;19.76;55.23
78123;BME280;67376;44.802;10.332;2023-05-16T02:18:07;99965.44;;;19.74;54.86
78123;BME280;67376;44.802;10.332;2023-05-16T02:20:33;99957.00;;;19.70;55.46
78123;BME280;67376;44.802;10.332;2023-05-16T02:22:59;99955.09;;;19.71;54.90
78123;BME280;67376;44.802;10.332;2023-05-16T02:25:24;99957.81;;;19.71;55.68
78123;BME280;67376;44.802;10.332;2023-05-16T02:27:50;99951.91;;;19.74;55.57
78123;BME280;67376;44.802;10.332;2023-05-16T02:30:15;99942.69;;;19.75;55.54
78123;BME280;67376;44.802;10.332;2023-05-16T02:32:41;99940.19;;;19.68;54.93
78123;BME280;67376;44.802;10.332;2023-05-16T02:35:09;99938.59;;;19.72;55.50
78123;BME280;67376;44.802;10.332;2023-05-16T02:37:35;99938.03;;;19.70;54.92
78123;BME280;67376;44.802;10.332;2023-05-16T02:40:01;99936.84;;;19.61;55.54
78123;BME280;67376;44.802;10.332;2023-05-16T02:42:29;99929.66;;;19.72;55.02
78123;BME280;67376;44.802;10.332;2023-05-16T02:44:56;99931.38;;;19.78;54.47
78123;BME280;67376;44.802;10.332;2023-05-16T02:47:21;99921.59;;;19.77;54.81
78123;BME280;67376;44.802;10.332;2023-05-16T02:49:46;99924.81;;;19.74;55.20
78123;BME280;67376;44.802;10.332;2023-05-16T02:52:12;99923.81;;;19.80;54.83
78123;BME280;67376;44.802;10.332;2023-05-16T02:54:37;99922.69;;;19.76;55.18
78123;BME280;67376;44.802;10.332;2023-05-16T02:57:03;99908.31;;;19.75;55.56
78123;BME280;67376;44.802;10.332;2023-05-16T02:59:28;99908.81;;;19.72;54.82
78123;BME280;67376;44.802;10.332;2023-05-16T03:01:54;99911.50;;;19.51;55.55
78123;BME280;67376;44.802;10.332;2023-05-16T03:04:19;99912.09;;;19.53;55.70
78123;BME280;67376;44.802;10.332;2023-05-16T03:06:45;99913.25;;;19.57;55.44
78123;BME280;67376;44.802;10.332;2023-05-16T03:09:10;99912.25;;;19.63;55.94
78123;BME280;67376;44.802;10.332;2023-05-16T03:11:36;99917.44;;;19.69;55.83
78123;BME280;67376;44.802;10.332;2023-05-16T03:14:02;99916.88;;;19.67;55.61
78123;BME280;67376;44.802;10.332;2023-05-16T03:16:27;99921.47;;;19.67;54.87
78123;BME280;67376;44.802;10.332;2023-05-16T03:18:52;99920.72;;;19.71;55.08
78123;BME280;67376;44.802;10.332;2023-05-16T03:21:18;99924.31;;;19.77;54.99
78123;BME280;67376;44.802;10.332;2023-05-16T03:23:43;99925.69;;;19.79;55.56
78123;BME280;67376;44.802;10.332;2023-05-16T03:26:09;99920.78;;;19.76;55.53
78123;BME280;67376;44.802;10.332;2023-05-16T03:28:35;99930.03;;;19.81;55.45
78123;BME280;67376;44.802;10.332;2023-05-16T03:31:01;99926.25;;;19.82;55.00
78123;BME280;67376;44.802;10.332;2023-05-16T03:33:26;99933.25;;;19.77;55.34
78123;BME280;67376;44.802;10.332;2023-05-16T03:35:51;99924.75;;;19.69;55.45
78123;BME280;67376;44.802;10.332;2023-05-16T03:38:17;99940.97;;;19.64;55.98
78123;BME280;67376;44.802;10.332;2023-05-16T03:40:43;99945.09;;;19.71;55.49
78123;BME280;67376;44.802;10.332;2023-05-16T03:43:08;99953.34;;;19.60;55.72
78123;BME280;67376;44.802;10.332;2023-05-16T03:45:34;99968.31;;;19.67;56.25
78123;BME280;67376;44.802;10.332;2023-05-16T03:47:59;99966.50;;;19.73;55.11
78123;BME280;67376;44.802;10.332;2023-05-16T03:50:25;99969.22;;;19.73;55.37
78123;BME280;67376;44.802;10.332;2023-05-16T03:52:51;99976.84;;;19.76;55.99
78123;BME280;67376;44.802;10.332;2023-05-16T03:55:20;99968.97;;;19.74;56.13
78123;BME280;67376;44.802;10.332;2023-05-16T03:57:45;99971.66;;;19.74;55.65
78123;BME280;67376;44.802;10.332;2023-05-16T04:00:12;99967.06;;;19.75;56.03
78123;BME280;67376;44.802;10.332;2023-05-16T04:02:38;99974.13;;;19.76;55.95
78123;BME280;67376;44.802;10.332;2023-05-16T04:05:08;99971.19;;;19.77;55.27
78123;BME280;67376;44.802;10.332;2023-05-16T04:07:35;99971.19;;;19.77;55.08
78123;BME280;67376;44.802;10.332;2023-05-16T04:10:01;99964.13;;;19.76;55.46
78123;BME280;67376;44.802;10.332;2023-05-16T04:12:26;99971.19;;;19.77;56.11
78123;BME280;67376;44.802;10.332;2023-05-16T04:14:51;99978.47;;;19.77;55.63
78123;BME280;67376;44.802;10.332;2023-05-16T04:17:17;99974.63;;;19.73;55.89
78123;BME280;67376;44.802;10.332;2023-05-16T04:19:42;99969.22;;;19.73;55.72
78123;BME280;67376;44.802;10.332;2023-05-16T04:22:08;99974.88;;;19.71;55.98
78123;BME280;67376;44.802;10.332;2023-05-16T04:24:33;99973.25;;;19.70;56.09
78123;BME280;67376;44.802;10.332;2023-05-16T04:26:59;99980.28;;;19.71;55.17
78123;BME280;67376;44.802;10.332;2023-05-16T04:29:24;99984.91;;;19.71;55.42
78123;BME280;67376;44.802;10.332;2023-05-16T04:31:50;99980.28;;;19.71;55.86
78123;BME280;67376;44.802;10.332;2023-05-16T04:34:16;99982.19;;;19.71;55.17
78123;BME280;67376;44.802;10.332;2023-05-16T04:36:42;99988.44;;;19.71;54.92
78123;BME280;67376;44.802;10.332;2023-05-16T04:39:07;99972.66;;;19.68;54.96
78123;BME280;67376;44.802;10.332;2023-05-16T04:41:32;99975.13;;;19.70;55.02
78123;BME280;67376;44.802;10.332;2023-05-16T04:44:01;99985.16;;;19.69;54.66
78123;BME280;67376;44.802;10.332;2023-05-16T04:46:28;99978.34;;;19.67;55.30
78123;BME280;67376;44.802;10.332;2023-05-16T04:48:54;99979.72;;;19.69;54.60
78123;BME280;67376;44.802;10.332;2023-05-16T04:51:19;99979.47;;;19.71;55.33
78123;BME280;67376;44.802;10.332;2023-05-16T04:53:46;99983.31;;;19.75;55.17
78123;BME280;67376;44.802;10.332;2023-05-16T04:56:11;99979.81;;;19.74;54.59
78123;BME280;67376;44.802;10.332;2023-05-16T04:58:36;99984.06;;;19.70;54.93
78123;BME280;67376;44.802;10.332;2023-05-16T05:01:02;99983.75;;;19.67;54.61
78123;BME280;67376;44.802;10.332;2023-05-16T05:03:28;99984.28;;;19.64;54.64
78123;BME280;67376;44.802;10.332;2023-05-16T05:05:53;99994.00;;;19.65;54.52
78123;BME280;67376;44.802;10.332;2023-05-16T05:08:20;99987.28;;;19.67;54.92
78123;BME280;67376;44.802;10.332;2023-05-16T05:10:46;99993.84;;;19.71;54.22
78123;BME280;67376;44.802;10.332;2023-05-16T05:13:11;99994.09;;;19.70;54.51
78123;BME280;67376;44.802;10.332;2023-05-16T05:15:36;99990.56;;;19.69;54.14
78123;BME280;67376;44.802;10.332;2023-05-16T05:18:02;99986.16;;;19.63;54.62
78123;BME280;67376;44.802;10.332;2023-05-16T05:20:28;99994.34;;;19.68;54.10
78123;BME280;67376;44.802;10.332;2023-05-16T05:22:53;99990.06;;;19.72;55.03
78123;BME280;67376;44.802;10.332;2023-05-16T05:25:19;99996.63;;;19.76;54.86
78123;BME280;67376;44.802;10.332;2023-05-16T05:27:44;99999.09;;;19.78;54.11
78123;BME280;67376;44.802;10.332;2023-05-16T05:30:10;99999.34;;;19.76;55.10
78123;BME280;67376;44.802;10.332;2023-05-16T05:32:36;99998.75;;;19.74;54.63
78123;BME280;67376;44.802;10.332;2023-05-16T05:35:01;99994.97;;;19.75;54.67
78123;BME280;67376;44.802;10.332;2023-05-16T05:37:28;99998.25;;;19.77;54.82
78123;BME280;67376;44.802;10.332;2023-05-16T05:39:54;99998.25;;;19.77;54.38
78123;BME280;67376;44.802;10.332;2023-05-16T05:42:20;99989.13;;;19.84;54.73
78123;BME280;67376;44.802;10.332;2023-05-16T05:44:45;99995.94;;;19.86;54.22
78123;BME280;67376;44.802;10.332;2023-05-16T05:47:10;99995.69;;;19.88;54.06
78123;BME280;67376;44.802;10.332;2023-05-16T05:49:36;99992.97;;;19.88;54.92
78123;BME280;67376;44.802;10.332;2023-05-16T05:52:02;99991.09;;;19.88;54.18
78123;BME280;67376;44.802;10.332;2023-05-16T05:54:27;99991.91;;;19.89;54.20
78123;BME280;67376;44.802;10.332;2023-05-16T05:56:53;99994.63;;;19.89;54.76
78123;BME280;67376;44.802;10.332;2023-05-16T05:59:18;99997.09;;;19.90;54.17
78123;BME280;67376;44.802;10.332;2023-05-16T06:01:43;100004.38;;;19.90;54.40
78123;BME280;67376;44.802;10.332;2023-05-16T06:04:09;100003.06;;;19.92;54.33
78123;BME280;67376;44.802;10.332;2023-05-16T06:06:36;100003.06;;;19.92;54.66
78123;BME280;67376;44.802;10.332;2023-05-16T06:09:01;100009.31;;;19.93;54.83
78123;BME280;67376;44.802;10.332;2023-05-16T06:11:27;100008.50;;;19.92;54.19
78123;BME280;67376;44.802;10.332;2023-05-16T06:13:52;100010.94;;;19.94;55.09
78123;BME280;67376;44.802;10.332;2023-05-16T06:16:18;100006.03;;;19.91;55.09
78123;BME280;67376;44.802;10.332;2023-05-16T06:18:44;100014.47;;;19.94;54.34
78123;BME280;67376;44.802;10.332;2023-05-16T06:21:09;100022.59;;;19.94;55.07
78123;BME280;67376;44.802;10.332;2023-05-16T06:23:35;100017.19;;;19.94;54.70
78123;BME280;67376;44.802;10.332;2023-05-16T06:26:01;100016.38;;;19.94;54.13
78123;BME280;67376;44.802;10.332;2023-05-16T06:28:27;100019.66;;;19.96;54.84
78123;BME280;67376;44.802;10.332;2023-05-16T06:30:53;100017.19;;;19.94;54.16
78123;BME280;67376;44.802;10.332;2023-05-16T06:33:19;100011.53;;;19.96;54.13
78123;BME280;67376;44.802;10.332;2023-05-16T06:35:44;100018.56;;;19.97;55.12
78123;BME280;67376;44.802;10.332;2023-05-16T06:38:09;100012.34;;;19.96;54.96
78123;BME280;67376;44.802;10.332;2023-05-16T06:40:35;100009.63;;;19.96;54.10
78123;BME280;67376;44.802;10.332;2023-05-16T06:43:01;99993.44;;;20.01;55.02
78123;BME280;67376;44.802;10.332;2023-05-16T06:45:27;99988.28;;;20.00;55.13
78123;BME280;67376;44.802;10.332;2023-05-16T06:47:52;99987.28;;;20.06;54.58
78123;BME280;67376;44.802;10.332;2023-05-16T06:50:17;99992.44;;;20.07;55.07
78123;BME280;67376;44.802;10.332;2023-05-16T06:52:43;99984.25;;;20.02;54.01
78123;BME280;67376;44.802;10.332;2023-05-16T06:55:08;99990.97;;;20.00;54.25
78123;BME280;67376;44.802;10.332;2023-05-16T06:57:34;99985.56;;;20.00;54.66
78123;BME280;67376;44.802;10.332;2023-05-16T06:59:59;99988.28;;;20.00;54.17
78123;BME280;67376;44.802;10.332;2023-05-16T07:02:24;99992.94;;;20.04;54.33
78123;BME280;67376;44.802;10.332;2023-05-16T07:04:50;100000.75;;;20.01;54.85
78123;BME280;67376;44.802;10.332;2023-05-16T07:07:15;99995.34;;;20.01;55.05
78123;BME280;67376;44.802;10.332;2023-05-16T07:09:41;99977.44;;;20.00;54.20
78123;BME280;67376;44.802;10.332;2023-05-16T07:12:07;99966.91;;;20.03;54.34
78123;BME280;67376;44.802;10.332;2023-05-16T07:14:32;99977.19;;;20.01;55.07
78123;BME280;67376;44.802;10.332;2023-05-16T07:16:58;99968.81;;;20.03;55.14
78123;BME280;67376;44.802;10.332;2023-05-16T07:19:23;99970.94;;;20.01;54.42
78123;BME280;67376;44.802;10.332;2023-05-16T07:21:48;99971.19;;;19.99;54.87
78123;BME280;67376;44.802;10.332;2023-05-16T07:24:14;99974.97;;;19.98;54.74
78123;BME280;67376;44.802;10.332;2023-05-16T07:26:39;99998.53;;;19.98;54.20
78123;BME280;67376;44.802;10.332;2023-05-16T07:29:04;99988.19;;;19.95;54.85
78123;BME280;67376;44.802;10.332;2023-05-16T07:31:30;99992.88;;;19.99;54.39
78123;BME280;67376;44.802;10.332;2023-05-16T07:33:55;99998.28;;;19.99;55.12
78123;BME280;67376;44.802;10.332;2023-05-16T07:36:21;99995.00;;;19.97;54.48
78123;BME280;67376;44.802;10.332;2023-05-16T07:38:47;99993.69;;;20.00;55.12
78123;BME280;67376;44.802;10.332;2023-05-16T07:41:12;99995.59;;;19.99;54.64
78123;BME280;67376;44.802;10.332;2023-05-16T07:43:37;99992.38;;;20.02;54.70
78123;BME280;67376;44.802;10.332;2023-05-16T07:46:04;99978.81;;;20.02;54.86
78123;BME280;67376;44.802;10.332;2023-05-16T07:48:30;99980.72;;;20.02;54.82
78123;BME280;67376;44.802;10.332;2023-05-16T07:50:55;99986.13;;;20.02;54.79
78123;BME280;67376;44.802;10.332;2023-05-16T07:53:21;99983.41;;;20.02;54.48
78123;BME280;67376;44.802;10.332;2023-05-16T07:55:47;99973.41;;;20.02;55.11
78123;BME280;67376;44.802;10.332;2023-05-16T07:58:13;99974.22;;;20.03;55.21
78123;BME280;67376;44.802;10.332;2023-05-16T08:00:38;99977.31;;;20.11;55.59
78123;BME280;67376;44.802;10.332;2023-05-16T08:03:04;99973.72;;;20.06;54.78
78123;BME280;67376;44.802;10.332;2023-05-16T08:05:30;99979.97;;;20.06;54.26
78123;BME280;67376;44.802;10.332;2023-05-16T08:07:56;99984.31;;;20.07;55.29
78123;BME280;67376;44.802;10.332;2023-05-16T08:10:21;99985.94;;;20.08;54.44
78123;BME280;67376;44.802;10.332;2023-05-16T08:12:47;99989.78;;;20.13;55.03
78123;BME280;67376;44.802;10.332;2023-05-16T08:15:13;99982.97;;;20.10;54.42
78123;BME280;67376;44.802;10.332;2023-05-16T08:17:38;99988.91;;;20.07;54.59
78123;BME280;67376;44.802;10.332;2023-05-16T08:20:04;99992.69;;;20.06;54.43
78123;BME280;67376;44.802;10.332;2023-05-16T08:22:31;99997.28;;;20.05;54.69
78123;BME280;67376;44.802;10.332;2023-05-16T08:24:56;99981.03;;;20.05;54.32
78123;BME280;67376;44.802;10.332;2023-05-16T08:27:22;99969.44;;;20.10;54.80
78123;BME280;67376;44.802;10.332;2023-05-16T08:29:48;99964.25;;;20.08;54.48
78123;BME280;67376;44.802;10.332;2023-05-16T08:32:14;99949.06;;;20.07;55.43
78123;BME280;67376;44.802;10.332;2023-05-16T08:34:40;99957.47;;;20.06;54.94
78123;BME280;67376;44.802;10.332;2023-05-16T08:37:05;99969.13;;;20.06;54.80
78123;BME280;67376;44.802;10.332;2023-05-16T08:39:30;99972.91;;;20.05;54.52
78123;BME280;67376;44.802;10.332;2023-05-16T08:41:56;99978.31;;;20.05;54.54
78123;BME280;67376;44.802;10.332;2023-05-16T08:44:23;99992.44;;;20.07;54.47
78123;BME280;67376;44.802;10.332;2023-05-16T08:46:52;100009.00;;;20.11;55.42
78123;BME280;67376;44.802;10.332;2023-05-16T08:49:18;100018.78;;;20.12;54.81
78123;BME280;67376;44.802;10.332;2023-05-16T08:51:46;100025.03;;;20.13;55.43
78123;BME280;67376;44.802;10.332;2023-05-16T08:54:12;100016.31;;;20.10;54.54
78123;BME280;67376;44.802;10.332;2023-05-16T08:56:42;100026.09;;;20.11;55.11
78123;BME280;67376;44.802;10.332;2023-05-16T08:59:08;100015.56;;;20.15;55.15
78123;BME280;67376;44.802;10.332;2023-05-16T09:01:34;100014.75;;;20.15;55.17
78123;BME280;67376;44.802;10.332;2023-05-16T09:04:00;100019.34;;;20.14;54.71
78123;BME280;67376;44.802;10.332;2023-05-16T09:06:26;100013.94;;;20.14;54.50
78123;BME280;67376;44.802;10.332;2023-05-16T09:08:52;100023.13;;;20.13;54.62
78123;BME280;67376;44.802;10.332;2023-05-16T09:11:18;100024.44;;;20.10;55.04
78123;BME280;67376;44.802;10.332;2023-05-16T09:13:44;100011.47;;;20.13;54.63
78123;BME280;67376;44.802;10.332;2023-05-16T09:16:10;99998.75;;;20.13;55.57
78123;BME280;67376;44.802;10.332;2023-05-16T09:18:36;99983.03;;;20.15;54.95
78123;BME280;67376;44.802;10.332;2023-05-16T09:21:03;99984.06;;;20.09;55.46
78123;BME280;67376;44.802;10.332;2023-05-16T09:23:29;100000.00;;;20.05;54.70
78123;BME280;67376;44.802;10.332;2023-05-16T09:25:56;99999.44;;;20.03;55.02
78123;BME280;67376;44.802;10.332;2023-05-16T09:28:22;100004.28;;;20.01;55.95
78123;BME280;67376;44.802;10.332;2023-05-16T09:30:51;100025.13;;;20.01;55.77
78123;BME280;67376;44.802;10.332;2023-05-16T09:33:17;100011.84;;;19.99;55.53
78123;BME280;67376;44.802;10.332;2023-05-16T09:35:42;100006.66;;;19.98;55.00
78123;BME280;67376;44.802;10.332;2023-05-16T09:38:13;100006.66;;;19.98;55.44
78123;BME280;67376;44.802;10.332;2023-05-16T09:40:40;100000.44;;;19.97;55.64
78123;BME280;67376;44.802;10.332;2023-05-16T09:43:08;100000.44;;;19.97;55.71
78123;BME280;67376;44.802;10.332;2023-05-16T09:45:34;99993.63;;;19.95;55.45
78123;BME280;67376;44.802;10.332;2023-05-16T09:48:03;99996.09;;;19.96;55.12
78123;BME280;67376;44.802;10.332;2023-05-16T09:50:31;99997.97;;;19.96;55.01
78123;BME280;67376;44.802;10.332;2023-05-16T09:52:57;100003.06;;;19.92;55.59
78123;BME280;67376;44.802;10.332;2023-05-16T09:55:22;100006.34;;;19.94;54.76
78123;BME280;67376;44.802;10.332;2023-05-16T09:57:48;100003.88;;;19.93;55.71
78123;BME280;67376;44.802;10.332;2023-05-16T10:00:14;100003.88;;;19.93;55.59
78123;BME280;67376;44.802;10.332;2023-05-16T10:02:39;99990.34;;;19.93;55.21
78123;BME280;67376;44.802;10.332;2023-05-16T10:05:06;99996.84;;;19.92;54.71
78123;BME280;67376;44.802;10.332;2023-05-16T10:07:31;99997.66;;;19.92;55.56
78123;BME280;67376;44.802;10.332;2023-05-16T10:10:06;99994.94;;;19.92;55.17
78123;BME280;67376;44.802;10.332;2023-05-16T10:12:35;100007.91;;;19.90;55.24
78123;BME280;67376;44.802;10.332;2023-05-16T10:15:03;100007.41;;;19.93;55.44
78123;BME280;67376;44.802;10.332;2023-05-16T10:17:32;100000.13;;;19.94;54.68
78123;BME280;67376;44.802;10.332;2023-05-16T10:20:00;99997.66;;;19.92;55.49
78123;BME280;67376;44.802;10.332;2023-05-16T10:22:28;99994.94;;;19.92;55.16
78123;BME280;67376;44.802;10.332;2023-05-16T10:24:57;99994.94;;;19.92;54.56
78123;BME280;67376;44.802;10.332;2023-05-16T10:27:24;99993.88;;;19.93;54.95
78123;BME280;67376;44.802;10.332;2023-05-16T10:29:50;99990.34;;;19.93;54.77
78123;BME280;67376;44.802;10.332;2023-05-16T10:32:17;99986.81;;;19.92;55.05
78123;BME280;67376;44.802;10.332;2023-05-16T10:34:44;99992.81;;;19.94;54.96
78123;BME280;67376;44.802;10.332;2023-05-16T10:37:10;99994.44;;;19.95;54.58
78123;BME280;67376;44.802;10.332;2023-05-16T10:39:37;100003.63;;;19.94;54.79
78123;BME280;67376;44.802;10.332;2023-05-16T10:42:05;100003.63;;;19.94;54.83
78123;BME280;67376;44.802;10.332;2023-05-16T10:44:32;99995.50;;;19.94;55.32
78123;BME280;67376;44.802;10.332;2023-05-16T10:46:58;99994.19;;;19.97;54.82
78123;BME280;67376;44.802;10.332;2023-05-16T10:49:25;99993.94;;;19.98;54.49
78123;BME280;67376;44.802;10.332;2023-05-16T10:52:11;99986.63;;;19.99;55.42
78123;BME280;67376;44.802;10.332;2023-05-16T10:54:39;99984.44;;;19.96;54.85
78123;BME280;67376;44.802;10.332;2023-05-16T10:57:07;99987.13;;;19.96;54.65
78123;BME280;67376;44.802;10.332;2023-05-16T10:59:59;99991.72;;;19.95;54.59
78123;BME280;67376;44.802;10.332;2023-05-16T11:02:30;99979.81;;;19.96;55.02
78123;BME280;67376;44.802;10.332;2023-05-16T11:05:00;99987.94;;;19.96;55.12
78123;BME280;67376;44.802;10.332;2023-05-16T11:07:31;99976.88;;;19.98;55.65
78123;BME280;67376;44.802;10.332;2023-05-16T11:10:09;99992.06;;;19.99;55.87
78123;BME280;67376;44.802;10.332;2023-05-16T11:12:55;99979.31;;;19.99;56.57
78123;BME280;67376;44.802;10.332;2023-05-16T11:15:27;99972.00;;;20.00;56.57
78123;BME280;67376;44.802;10.332;2023-05-16T11:18:15;99977.44;;;20.00;56.72
78123;BME280;67376;44.802;10.332;2023-05-16T11:20:41;99985.56;;;20.00;57.05
78123;BME280;67376;44.802;10.332;2023-05-16T11:25:41;99984.75;;;19.99;56.83
78123;BME280;67376;44.802;10.332;2023-05-16T11:28:09;99982.28;;;19.98;57.28
78123;BME280;67376;44.802;10.332;2023-05-16T11:30:35;99977.69;;;19.98;57.36
78123;BME280;67376;44.802;10.332;2023-05-16T11:33:00;99983.09;;;19.98;56.89
78123;BME280;67376;44.802;10.332;2023-05-16T11:35:26;99985.00;;;19.98;57.39
78123;BME280;67376;44.802;10.332;2023-05-16T11:37:52;99975.22;;;19.97;57.83
78123;BME280;67376;44.802;10.332;2023-05-16T11:40:17;99973.59;;;19.96;56.91
78123;BME280;67376;44.802;10.332;2023-05-16T11:42:45;99964.38;;;19.97;56.95
78123;BME280;67376;44.802;10.332;2023-05-16T11:45:14;99971.69;;;19.96;57.78
78123;BME280;67376;44.802;10.332;2023-05-16T11:47:42;99977.94;;;19.97;57.14
78123;BME280;67376;44.802;10.332;2023-05-16T11:50:13;99975.22;;;19.97;56.61
78123;BME280;67376;44.802;10.332;2023-05-16T11:52:39;99979.00;;;19.96;57.21
78123;BME280;67376;44.802;10.332;2023-05-16T11:55:08;99987.44;;;19.99;56.91
78123;BME280;67376;44.802;10.332;2023-05-16T11:57:36;99981.22;;;19.99;57.11
78123;BME280;67376;44.802;10.332;2023-05-16T12:00:14;99990.16;;;19.99;57.51
78123;BME280;67376;44.802;10.332;2023-05-16T12:02:40;99984.75;;;19.99;56.84
78123;BME280;67376;44.802;10.332;2023-05-16T12:05:09;99982.59;;;20.01;56.88
78123;BME280;67376;44.802;10.332;2023-05-16T12:07:36;99973.09;;;19.99;56.84
78123;BME280;67376;44.802;10.332;2023-05-16T12:10:08;99978.25;;;20.00;57.25
78123;BME280;67376;44.802;10.332;2023-05-16T12:12:35;99982.59;;;20.01;56.65
78123;BME280;67376;44.802;10.332;2023-05-16T12:15:02;99993.44;;;20.01;57.14
78123;BME280;67376;44.802;10.332;2023-05-16T12:17:28;99986.38;;;20.00;57.26
78123;BME280;67376;44.802;10.332;2023-05-16T12:19:53;99984.50;;;20.01;57.23
78123;BME280;67376;44.802;10.332;2023-05-16T12:22:19;99980.97;;;20.00;57.36
78123;BME280;67376;44.802;10.332;2023-05-16T12:24:45;99982.84;;;20.00;56.84
78123;BME280;67376;44.802;10.332;2023-05-16T12:27:10;99977.44;;;20.00;57.56
78123;BME280;67376;44.802;10.332;2023-05-16T12:29:37;99974.72;;;20.00;56.81
78123;BME280;67376;44.802;10.332;2023-05-16T12:32:02;99975.53;;;20.00;57.07
78123;BME280;67376;44.802;10.332;2023-05-16T12:34:29;99979.06;;;20.01;57.16
78123;BME280;67376;44.802;10.332;2023-05-16T12:36:54;99978.25;;;20.00;56.75
78123;BME280;67376;44.802;10.332;2023-05-16T12:39:20;99972.00;;;20.00;56.87
78123;BME280;67376;44.802;10.332;2023-05-16T12:41:47;99972.34;;;20.03;56.71
78123;BME280;67376;44.802;10.332;2023-05-16T12:44:14;99975.59;;;20.05;56.71
78123;BME280;67376;44.802;10.332;2023-05-16T12:46:49;99971.00;;;20.06;57.55
78123;BME280;67376;44.802;10.332;2023-05-16T12:49:24;99970.75;;;20.07;56.15
78123;BME280;67376;44.802;10.332;2023-05-16T12:51:52;99974.03;;;20.09;57.03
78123;BME280;67376;44.802;10.332;2023-05-16T12:54:18;99969.44;;;20.10;56.37